sensor_id;sensor_type;location;lat;lon;timestamp;P1;durP1;ratioP1;P2;durP2;ratioP2
79759;SDS011;70512;42.122;24.732;2024-02-26T00:02:26;69.70;;;40.05;;
79759;SDS011;70512;42.122;24.732;2024-02-26T00:04:54;71.60;;;42.38;;
79759;SDS011;70512;42.122;24.732;2024-02-26T00:07:22;70.78;;;40.67;;
79759;SDS011;70512;42.122;24.732;2024-02-26T00:09:49;64.62;;;40.08;;
79759;SDS011;70512;42.122;24.732;2024-02-26T00:12:17;57.75;;;36.95;;
79759;SDS011;70512;42.122;24.732;2024-02-26T00:14:45;63.73;;;37.28;;
79759;SDS011;70512;42.122;24.732;2024-02-26T00:17:14;59.38;;;36.00;;
79759;SDS011;70512;42.122;24.732;2024-02-26T00:19:42;54.03;;;33.63;;
79759;SDS011;70512;42.122;24.732;2024-02-26T00:22:10;56.60;;;34.98;;
79759;SDS011;70512;42.122;24.732;2024-02-26T00:24:37;63.90;;;34.98;;
79759;SDS011;70512;42.122;24.732;2024-02-26T00:27:08;58.65;;;35.83;;
79759;SDS011;70512;42.122;24.732;2024-02-26T00:29:36;63.40;;;34.67;;
79759;SDS011;70512;42.122;24.732;2024-02-26T00:32:04;55.95;;;35.15;;
79759;SDS011;70512;42.122;24.732;2024-02-26T00:34:32;61.10;;;35.13;;
79759;SDS011;70512;42.122;24.732;2024-02-26T00:37:00;55.70;;;32.73;;
79759;SDS011;70512;42.122;24.732;2024-02-26T00:39:28;60.40;;;34.50;;
79759;SDS011;70512;42.122;24.732;2024-02-26T00:41:56;57.53;;;34.98;;
79759;SDS011;70512;42.122;24.732;2024-02-26T00:44:23;52.48;;;31.62;;
79759;SDS011;70512;42.122;24.732;2024-02-26T00:46:51;48.17;;;32.13;;
79759;SDS011;70512;42.122;24.732;2024-02-26T00:49:19;53.38;;;30.37;;
79759;SDS011;70512;42.122;24.732;2024-02-26T00:51:46;50.70;;;29.80;;
79759;SDS011;70512;42.122;24.732;2024-02-26T00:54:14;54.77;;;29.75;;
79759;SDS011;70512;42.122;24.732;2024-02-26T00:56:42;52.93;;;32.00;;
79759;SDS011;70512;42.122;24.732;2024-02-26T00:59:09;52.62;;;30.15;;
79759;SDS011;70512;42.122;24.732;2024-02-26T01:01:37;48.02;;;28.67;;
79759;SDS011;70512;42.122;24.732;2024-02-26T01:04:05;44.70;;;27.05;;
79759;SDS011;70512;42.122;24.732;2024-02-26T01:06:32;50.75;;;30.65;;
79759;SDS011;70512;42.122;24.732;2024-02-26T01:09:00;51.80;;;29.72;;
79759;SDS011;70512;42.122;24.732;2024-02-26T01:11:28;91.40;;;31.85;;
79759;SDS011;70512;42.122;24.732;2024-02-26T01:13:56;43.02;;;25.97;;
79759;SDS011;70512;42.122;24.732;2024-02-26T01:16:24;45.52;;;29.85;;
79759;SDS011;70512;42.122;24.732;2024-02-26T01:18:53;47.58;;;25.05;;
79759;SDS011;70512;42.122;24.732;2024-02-26T01:21:21;45.33;;;26.17;;
79759;SDS011;70512;42.122;24.732;2024-02-26T01:23:48;51.15;;;27.35;;
79759;SDS011;70512;42.122;24.732;2024-02-26T01:26:16;58.73;;;28.32;;
79759;SDS011;70512;42.122;24.732;2024-02-26T01:28:44;44.88;;;27.82;;
79759;SDS011;70512;42.122;24.732;2024-02-26T01:31:12;39.38;;;26.50;;
79759;SDS011;70512;42.122;24.732;2024-02-26T01:33:41;39.00;;;25.95;;
79759;SDS011;70512;42.122;24.732;2024-02-26T01:36:08;40.67;;;26.80;;
79759;SDS011;70512;42.122;24.732;2024-02-26T01:38:36;41.68;;;26.65;;
79759;SDS011;70512;42.122;24.732;2024-02-26T01:41:04;46.88;;;26.70;;
79759;SDS011;70512;42.122;24.732;2024-02-26T01:43:33;53.13;;;28.45;;
79759;SDS011;70512;42.122;24.732;2024-02-26T01:46:01;45.65;;;26.93;;
79759;SDS011;70512;42.122;24.732;2024-02-26T01:48:29;45.55;;;26.50;;
79759;SDS011;70512;42.122;24.732;2024-02-26T01:50:57;41.37;;;24.92;;
79759;SDS011;70512;42.122;24.732;2024-02-26T01:53:25;42.55;;;24.92;;
79759;SDS011;70512;42.122;24.732;2024-02-26T01:55:53;40.78;;;25.97;;
79759;SDS011;70512;42.122;24.732;2024-02-26T01:58:20;39.03;;;26.10;;
79759;SDS011;70512;42.122;24.732;2024-02-26T02:00:48;44.35;;;26.60;;
79759;SDS011;70512;42.122;24.732;2024-02-26T02:03:16;45.50;;;26.60;;
79759;SDS011;70512;42.122;24.732;2024-02-26T02:05:44;45.95;;;25.00;;
79759;SDS011;70512;42.122;24.732;2024-02-26T02:08:12;41.15;;;24.37;;
79759;SDS011;70512;42.122;24.732;2024-02-26T02:10:45;38.55;;;25.80;;
79759;SDS011;70512;42.122;24.732;2024-02-26T02:13:09;45.83;;;24.30;;
79759;SDS011;70512;42.122;24.732;2024-02-26T02:15:37;43.48;;;23.62;;
79759;SDS011;70512;42.122;24.732;2024-02-26T02:18:05;40.10;;;24.18;;
79759;SDS011;70512;42.122;24.732;2024-02-26T02:20:33;37.23;;;23.85;;
79759;SDS011;70512;42.122;24.732;2024-02-26T02:23:01;34.80;;;23.20;;
79759;SDS011;70512;42.122;24.732;2024-02-26T02:25:29;42.27;;;22.50;;
79759;SDS011;70512;42.122;24.732;2024-02-26T02:27:57;44.53;;;25.15;;
79759;SDS011;70512;42.122;24.732;2024-02-26T02:30:26;38.90;;;23.20;;
79759;SDS011;70512;42.122;24.732;2024-02-26T02:32:55;46.77;;;25.05;;
79759;SDS011;70512;42.122;24.732;2024-02-26T02:35:24;46.18;;;26.93;;
79759;SDS011;70512;42.122;24.732;2024-02-26T02:37:52;42.58;;;24.02;;
79759;SDS011;70512;42.122;24.732;2024-02-26T02:40:21;41.13;;;21.40;;
79759;SDS011;70512;42.122;24.732;2024-02-26T02:42:49;46.53;;;22.48;;
79759;SDS011;70512;42.122;24.732;2024-02-26T02:45:16;38.08;;;23.57;;
79759;SDS011;70512;42.122;24.732;2024-02-26T02:47:44;44.27;;;23.62;;
79759;SDS011;70512;42.122;24.732;2024-02-26T02:50:12;44.27;;;25.05;;
79759;SDS011;70512;42.122;24.732;2024-02-26T02:52:39;36.75;;;24.32;;
79759;SDS011;70512;42.122;24.732;2024-02-26T02:55:07;35.55;;;22.40;;
79759;SDS011;70512;42.122;24.732;2024-02-26T02:57:35;38.67;;;23.47;;
79759;SDS011;70512;42.122;24.732;2024-02-26T03:00:04;54.60;;;23.50;;
79759;SDS011;70512;42.122;24.732;2024-02-26T03:02:33;41.65;;;24.00;;
79759;SDS011;70512;42.122;24.732;2024-02-26T03:05:03;39.53;;;24.37;;
79759;SDS011;70512;42.122;24.732;2024-02-26T03:07:31;39.48;;;23.92;;
79759;SDS011;70512;42.122;24.732;2024-02-26T03:09:59;40.38;;;24.95;;
79759;SDS011;70512;42.122;24.732;2024-02-26T03:12:27;41.65;;;24.90;;
79759;SDS011;70512;42.122;24.732;2024-02-26T03:14:54;36.10;;;21.82;;
79759;SDS011;70512;42.122;24.732;2024-02-26T03:17:27;35.10;;;21.80;;
79759;SDS011;70512;42.122;24.732;2024-02-26T03:19:57;33.70;;;21.60;;
79759;SDS011;70512;42.122;24.732;2024-02-26T03:22:25;39.53;;;24.32;;
79759;SDS011;70512;42.122;24.732;2024-02-26T03:24:53;39.53;;;23.85;;
79759;SDS011;70512;42.122;24.732;2024-02-26T03:27:20;35.78;;;22.40;;
79759;SDS011;70512;42.122;24.732;2024-02-26T03:29:49;39.33;;;22.67;;
79759;SDS011;70512;42.122;24.732;2024-02-26T03:32:17;35.35;;;24.43;;
79759;SDS011;70512;42.122;24.732;2024-02-26T03:34:44;38.33;;;24.25;;
79759;SDS011;70512;42.122;24.732;2024-02-26T03:37:13;43.92;;;24.95;;
79759;SDS011;70512;42.122;24.732;2024-02-26T03:39:41;43.70;;;25.52;;
79759;SDS011;70512;42.122;24.732;2024-02-26T03:42:08;47.15;;;27.20;;
79759;SDS011;70512;42.122;24.732;2024-02-26T03:44:36;44.33;;;28.00;;
79759;SDS011;70512;42.122;24.732;2024-02-26T03:47:04;53.75;;;29.18;;
79759;SDS011;70512;42.122;24.732;2024-02-26T03:49:31;52.88;;;32.28;;
79759;SDS011;70512;42.122;24.732;2024-02-26T03:51:59;60.00;;;32.40;;
79759;SDS011;70512;42.122;24.732;2024-02-26T03:54:27;59.93;;;34.43;;
79759;SDS011;70512;42.122;24.732;2024-02-26T03:56:54;54.00;;;31.30;;
79759;SDS011;70512;42.122;24.732;2024-02-26T03:59:22;59.63;;;33.10;;
79759;SDS011;70512;42.122;24.732;2024-02-26T04:01:50;54.00;;;33.80;;
79759;SDS011;70512;42.122;24.732;2024-02-26T04:04:18;54.53;;;34.45;;
79759;SDS011;70512;42.122;24.732;2024-02-26T04:06:46;56.48;;;33.18;;
79759;SDS011;70512;42.122;24.732;2024-02-26T04:09:14;56.73;;;34.25;;
79759;SDS011;70512;42.122;24.732;2024-02-26T04:11:42;62.00;;;34.50;;
79759;SDS011;70512;42.122;24.732;2024-02-26T04:14:09;57.13;;;35.08;;
79759;SDS011;70512;42.122;24.732;2024-02-26T04:16:38;59.65;;;35.40;;
79759;SDS011;70512;42.122;24.732;2024-02-26T04:19:05;60.20;;;35.70;;
79759;SDS011;70512;42.122;24.732;2024-02-26T04:21:33;56.35;;;36.70;;
79759;SDS011;70512;42.122;24.732;2024-02-26T04:24:03;54.80;;;35.20;;
79759;SDS011;70512;42.122;24.732;2024-02-26T04:26:31;53.15;;;33.85;;
79759;SDS011;70512;42.122;24.732;2024-02-26T04:28:58;51.92;;;31.85;;
79759;SDS011;70512;42.122;24.732;2024-02-26T04:31:34;59.75;;;31.90;;
79759;SDS011;70512;42.122;24.732;2024-02-26T04:33:58;59.40;;;27.77;;
79759;SDS011;70512;42.122;24.732;2024-02-26T04:36:26;43.80;;;27.00;;
79759;SDS011;70512;42.122;24.732;2024-02-26T04:38:53;41.28;;;26.40;;
79759;SDS011;70512;42.122;24.732;2024-02-26T04:41:21;44.85;;;27.67;;
79759;SDS011;70512;42.122;24.732;2024-02-26T04:43:49;40.58;;;23.83;;
79759;SDS011;70512;42.122;24.732;2024-02-26T04:46:16;39.78;;;21.57;;
79759;SDS011;70512;42.122;24.732;2024-02-26T04:48:44;38.85;;;21.97;;
79759;SDS011;70512;42.122;24.732;2024-02-26T04:51:12;37.95;;;20.45;;
79759;SDS011;70512;42.122;24.732;2024-02-26T04:53:40;37.08;;;20.32;;
79759;SDS011;70512;42.122;24.732;2024-02-26T04:56:08;31.85;;;17.60;;
79759;SDS011;70512;42.122;24.732;2024-02-26T04:58:35;35.20;;;18.42;;
79759;SDS011;70512;42.122;24.732;2024-02-26T05:01:03;43.83;;;20.32;;
79759;SDS011;70512;42.122;24.732;2024-02-26T05:03:31;31.65;;;18.37;;
79759;SDS011;70512;42.122;24.732;2024-02-26T05:05:59;33.08;;;19.50;;
79759;SDS011;70512;42.122;24.732;2024-02-26T05:08:27;28.27;;;16.97;;
79759;SDS011;70512;42.122;24.732;2024-02-26T05:10:56;34.73;;;21.05;;
79759;SDS011;70512;42.122;24.732;2024-02-26T05:13:24;30.82;;;19.70;;
79759;SDS011;70512;42.122;24.732;2024-02-26T05:15:52;33.83;;;17.90;;
79759;SDS011;70512;42.122;24.732;2024-02-26T05:18:19;32.78;;;18.20;;
79759;SDS011;70512;42.122;24.732;2024-02-26T05:20:48;31.68;;;16.57;;
79759;SDS011;70512;42.122;24.732;2024-02-26T05:23:16;27.65;;;16.62;;
79759;SDS011;70512;42.122;24.732;2024-02-26T05:25:43;36.03;;;17.82;;
79759;SDS011;70512;42.122;24.732;2024-02-26T05:28:13;33.08;;;17.02;;
79759;SDS011;70512;42.122;24.732;2024-02-26T05:30:42;29.40;;;16.02;;
79759;SDS011;70512;42.122;24.732;2024-02-26T05:33:10;26.33;;;16.25;;
79759;SDS011;70512;42.122;24.732;2024-02-26T05:35:37;43.20;;;19.12;;
79759;SDS011;70512;42.122;24.732;2024-02-26T05:38:06;30.70;;;17.82;;
79759;SDS011;70512;42.122;24.732;2024-02-26T05:40:33;29.12;;;17.92;;
79759;SDS011;70512;42.122;24.732;2024-02-26T05:43:01;33.85;;;19.73;;
79759;SDS011;70512;42.122;24.732;2024-02-26T05:45:29;38.30;;;21.90;;
79759;SDS011;70512;42.122;24.732;2024-02-26T05:47:57;40.78;;;26.17;;
79759;SDS011;70512;42.122;24.732;2024-02-26T05:50:24;26.85;;;18.17;;
79759;SDS011;70512;42.122;24.732;2024-02-26T05:52:52;37.45;;;20.08;;
79759;SDS011;70512;42.122;24.732;2024-02-26T05:55:20;35.55;;;21.73;;
79759;SDS011;70512;42.122;24.732;2024-02-26T05:57:47;33.85;;;17.67;;
79759;SDS011;70512;42.122;24.732;2024-02-26T06:00:15;29.77;;;17.67;;
79759;SDS011;70512;42.122;24.732;2024-02-26T06:02:43;33.73;;;19.23;;
79759;SDS011;70512;42.122;24.732;2024-02-26T06:05:11;31.77;;;18.42;;
79759;SDS011;70512;42.122;24.732;2024-02-26T06:07:38;31.48;;;17.92;;
79759;SDS011;70512;42.122;24.732;2024-02-26T06:10:07;35.30;;;19.15;;
79759;SDS011;70512;42.122;24.732;2024-02-26T06:12:35;30.88;;;15.53;;
79759;SDS011;70512;42.122;24.732;2024-02-26T06:15:03;28.47;;;17.23;;
79759;SDS011;70512;42.122;24.732;2024-02-26T06:17:31;36.08;;;18.55;;
79759;SDS011;70512;42.122;24.732;2024-02-26T06:19:59;32.58;;;17.73;;
79759;SDS011;70512;42.122;24.732;2024-02-26T06:22:29;30.08;;;17.32;;
79759;SDS011;70512;42.122;24.732;2024-02-26T06:24:57;40.28;;;17.12;;
79759;SDS011;70512;42.122;24.732;2024-02-26T06:27:25;48.08;;;20.05;;
79759;SDS011;70512;42.122;24.732;2024-02-26T06:29:52;31.12;;;17.20;;
79759;SDS011;70512;42.122;24.732;2024-02-26T06:32:20;36.30;;;17.92;;
79759;SDS011;70512;42.122;24.732;2024-02-26T06:34:48;30.05;;;19.27;;
79759;SDS011;70512;42.122;24.732;2024-02-26T06:37:16;35.35;;;16.25;;
79759;SDS011;70512;42.122;24.732;2024-02-26T06:39:44;26.55;;;15.85;;
79759;SDS011;70512;42.122;24.732;2024-02-26T06:42:11;29.12;;;16.17;;
79759;SDS011;70512;42.122;24.732;2024-02-26T06:44:39;30.82;;;16.85;;
79759;SDS011;70512;42.122;24.732;2024-02-26T06:47:07;35.20;;;17.52;;
79759;SDS011;70512;42.122;24.732;2024-02-26T06:49:35;32.53;;;16.80;;
79759;SDS011;70512;42.122;24.732;2024-02-26T06:52:02;43.70;;;17.17;;
79759;SDS011;70512;42.122;24.732;2024-02-26T06:54:30;32.28;;;18.23;;
79759;SDS011;70512;42.122;24.732;2024-02-26T06:56:58;90.17;;;81.55;;
79759;SDS011;70512;42.122;24.732;2024-02-26T06:59:26;43.52;;;22.98;;
79759;SDS011;70512;42.122;24.732;2024-02-26T07:01:54;36.23;;;18.73;;
79759;SDS011;70512;42.122;24.732;2024-02-26T07:04:21;30.32;;;19.65;;
79759;SDS011;70512;42.122;24.732;2024-02-26T07:06:49;31.33;;;19.07;;
79759;SDS011;70512;42.122;24.732;2024-02-26T07:09:17;37.93;;;20.50;;
79759;SDS011;70512;42.122;24.732;2024-02-26T07:11:44;35.43;;;19.77;;
79759;SDS011;70512;42.122;24.732;2024-02-26T07:14:12;37.85;;;23.12;;
79759;SDS011;70512;42.122;24.732;2024-02-26T07:16:40;35.58;;;21.42;;
79759;SDS011;70512;42.122;24.732;2024-02-26T07:19:08;46.88;;;21.15;;
79759;SDS011;70512;42.122;24.732;2024-02-26T07:21:35;39.88;;;21.30;;
79759;SDS011;70512;42.122;24.732;2024-02-26T07:24:03;48.52;;;23.75;;
79759;SDS011;70512;42.122;24.732;2024-02-26T07:26:31;45.85;;;20.70;;
79759;SDS011;70512;42.122;24.732;2024-02-26T07:28:59;44.30;;;20.55;;
79759;SDS011;70512;42.122;24.732;2024-02-26T07:31:27;51.35;;;25.25;;
79759;SDS011;70512;42.122;24.732;2024-02-26T07:33:54;36.80;;;22.82;;
79759;SDS011;70512;42.122;24.732;2024-02-26T07:36:22;35.70;;;21.68;;
79759;SDS011;70512;42.122;24.732;2024-02-26T07:38:50;41.05;;;22.85;;
79759;SDS011;70512;42.122;24.732;2024-02-26T07:41:20;36.83;;;22.07;;
79759;SDS011;70512;42.122;24.732;2024-02-26T07:43:47;46.23;;;24.12;;
79759;SDS011;70512;42.122;24.732;2024-02-26T07:46:15;45.85;;;24.50;;
79759;SDS011;70512;42.122;24.732;2024-02-26T07:48:43;43.85;;;22.37;;
79759;SDS011;70512;42.122;24.732;2024-02-26T07:51:14;37.25;;;23.20;;
79759;SDS011;70512;42.122;24.732;2024-02-26T07:53:41;52.38;;;23.83;;
79759;SDS011;70512;42.122;24.732;2024-02-26T07:56:10;46.88;;;25.65;;
79759;SDS011;70512;42.122;24.732;2024-02-26T07:58:39;50.15;;;24.30;;
79759;SDS011;70512;42.122;24.732;2024-02-26T08:01:07;55.52;;;26.33;;
79759;SDS011;70512;42.122;24.732;2024-02-26T08:03:36;54.73;;;25.45;;
79759;SDS011;70512;42.122;24.732;2024-02-26T08:06:04;68.47;;;31.57;;
79759;SDS011;70512;42.122;24.732;2024-02-26T08:08:32;58.58;;;30.40;;
79759;SDS011;70512;42.122;24.732;2024-02-26T08:11:00;64.60;;;30.65;;
79759;SDS011;70512;42.122;24.732;2024-02-26T08:13:27;50.65;;;29.12;;
79759;SDS011;70512;42.122;24.732;2024-02-26T08:15:55;47.17;;;26.77;;
79759;SDS011;70512;42.122;24.732;2024-02-26T08:18:23;56.10;;;29.72;;
79759;SDS011;70512;42.122;24.732;2024-02-26T08:20:50;59.27;;;29.70;;
79759;SDS011;70512;42.122;24.732;2024-02-26T08:23:18;55.33;;;28.65;;
79759;SDS011;70512;42.122;24.732;2024-02-26T08:25:46;46.98;;;27.62;;
79759;SDS011;70512;42.122;24.732;2024-02-26T08:28:14;54.35;;;25.77;;
79759;SDS011;70512;42.122;24.732;2024-02-26T08:30:43;49.27;;;23.90;;
79759;SDS011;70512;42.122;24.732;2024-02-26T08:33:11;46.13;;;23.38;;
79759;SDS011;70512;42.122;24.732;2024-02-26T08:35:39;46.77;;;24.32;;
79759;SDS011;70512;42.122;24.732;2024-02-26T08:38:07;42.50;;;24.67;;
79759;SDS011;70512;42.122;24.732;2024-02-26T08:40:35;42.25;;;24.57;;
79759;SDS011;70512;42.122;24.732;2024-02-26T08:43:02;52.08;;;25.45;;
79759;SDS011;70512;42.122;24.732;2024-02-26T08:45:30;41.98;;;25.00;;
79759;SDS011;70512;42.122;24.732;2024-02-26T08:47:58;43.60;;;26.37;;
79759;SDS011;70512;42.122;24.732;2024-02-26T08:50:25;44.10;;;23.98;;
79759;SDS011;70512;42.122;24.732;2024-02-26T08:52:53;48.68;;;24.45;;
79759;SDS011;70512;42.122;24.732;2024-02-26T08:55:21;46.37;;;23.83;;
79759;SDS011;70512;42.122;24.732;2024-02-26T08:57:49;43.98;;;23.87;;
79759;SDS011;70512;42.122;24.732;2024-02-26T09:00:17;53.58;;;26.17;;
79759;SDS011;70512;42.122;24.732;2024-02-26T09:02:47;38.55;;;22.30;;
79759;SDS011;70512;42.122;24.732;2024-02-26T09:05:15;50.43;;;26.45;;
79759;SDS011;70512;42.122;24.732;2024-02-26T09:07:42;35.70;;;21.35;;
79759;SDS011;70512;42.122;24.732;2024-02-26T09:10:12;36.17;;;20.75;;
79759;SDS011;70512;42.122;24.732;2024-02-26T09:12:39;50.00;;;23.45;;
79759;SDS011;70512;42.122;24.732;2024-02-26T09:15:08;42.40;;;22.40;;
79759;SDS011;70512;42.122;24.732;2024-02-26T09:17:36;40.78;;;22.93;;
79759;SDS011;70512;42.122;24.732;2024-02-26T09:20:04;45.40;;;22.58;;
79759;SDS011;70512;42.122;24.732;2024-02-26T09:22:33;44.77;;;25.32;;
79759;SDS011;70512;42.122;24.732;2024-02-26T09:25:03;42.50;;;21.17;;
79759;SDS011;70512;42.122;24.732;2024-02-26T09:27:32;43.15;;;27.42;;
79759;SDS011;70512;42.122;24.732;2024-02-26T09:30:00;50.17;;;25.15;;
79759;SDS011;70512;42.122;24.732;2024-02-26T09:32:28;57.15;;;32.08;;
79759;SDS011;70512;42.122;24.732;2024-02-26T09:34:57;43.30;;;24.87;;
79759;SDS011;70512;42.122;24.732;2024-02-26T09:37:24;41.40;;;25.45;;
79759;SDS011;70512;42.122;24.732;2024-02-26T09:39:52;57.50;;;25.25;;
79759;SDS011;70512;42.122;24.732;2024-02-26T09:42:20;46.37;;;25.43;;
79759;SDS011;70512;42.122;24.732;2024-02-26T09:44:49;47.03;;;26.52;;
79759;SDS011;70512;42.122;24.732;2024-02-26T09:47:20;58.73;;;24.55;;
79759;SDS011;70512;42.122;24.732;2024-02-26T09:49:49;41.40;;;24.18;;
79759;SDS011;70512;42.122;24.732;2024-02-26T09:52:18;47.43;;;25.40;;
79759;SDS011;70512;42.122;24.732;2024-02-26T09:54:47;47.88;;;24.82;;
79759;SDS011;70512;42.122;24.732;2024-02-26T09:57:15;42.90;;;25.43;;
79759;SDS011;70512;42.122;24.732;2024-02-26T09:59:44;48.00;;;24.32;;
79759;SDS011;70512;42.122;24.732;2024-02-26T10:02:13;52.40;;;24.05;;
79759;SDS011;70512;42.122;24.732;2024-02-26T10:04:41;59.67;;;26.27;;
79759;SDS011;70512;42.122;24.732;2024-02-26T10:07:11;40.78;;;22.67;;
79759;SDS011;70512;42.122;24.732;2024-02-26T10:09:39;40.83;;;23.60;;
79759;SDS011;70512;42.122;24.732;2024-02-26T10:12:10;32.85;;;22.32;;
79759;SDS011;70512;42.122;24.732;2024-02-26T10:14:38;38.38;;;20.20;;
79759;SDS011;70512;42.122;24.732;2024-02-26T10:17:08;44.18;;;22.25;;
79759;SDS011;70512;42.122;24.732;2024-02-26T10:22:04;44.48;;;23.00;;
79759;SDS011;70512;42.122;24.732;2024-02-26T10:24:32;37.17;;;22.67;;
79759;SDS011;70512;42.122;24.732;2024-02-26T10:27:01;32.70;;;21.60;;
79759;SDS011;70512;42.122;24.732;2024-02-26T10:29:29;30.57;;;20.95;;
79759;SDS011;70512;42.122;24.732;2024-02-26T10:31:57;46.53;;;27.77;;
79759;SDS011;70512;42.122;24.732;2024-02-26T10:34:25;32.23;;;21.00;;
79759;SDS011;70512;42.122;24.732;2024-02-26T10:36:54;47.62;;;23.75;;
79759;SDS011;70512;42.122;24.732;2024-02-26T10:39:22;39.08;;;22.17;;
79759;SDS011;70512;42.122;24.732;2024-02-26T10:41:50;39.90;;;23.67;;
79759;SDS011;70512;42.122;24.732;2024-02-26T10:44:18;37.58;;;22.62;;
79759;SDS011;70512;42.122;24.732;2024-02-26T10:46:46;33.73;;;22.22;;
79759;SDS011;70512;42.122;24.732;2024-02-26T10:49:18;31.73;;;19.00;;
79759;SDS011;70512;42.122;24.732;2024-02-26T10:51:55;37.17;;;21.48;;
79759;SDS011;70512;42.122;24.732;2024-02-26T10:54:17;39.25;;;26.85;;
79759;SDS011;70512;42.122;24.732;2024-02-26T10:56:46;33.28;;;18.27;;
79759;SDS011;70512;42.122;24.732;2024-02-26T10:59:16;34.60;;;20.85;;
79759;SDS011;70512;42.122;24.732;2024-02-26T11:01:47;27.95;;;18.25;;
79759;SDS011;70512;42.122;24.732;2024-02-26T11:04:16;37.05;;;18.77;;
79759;SDS011;70512;42.122;24.732;2024-02-26T11:06:44;27.00;;;18.23;;
79759;SDS011;70512;42.122;24.732;2024-02-26T11:09:14;29.67;;;15.60;;
79759;SDS011;70512;42.122;24.732;2024-02-26T11:11:43;35.65;;;16.48;;
79759;SDS011;70512;42.122;24.732;2024-02-26T11:14:12;26.12;;;17.45;;
79759;SDS011;70512;42.122;24.732;2024-02-26T11:16:40;28.83;;;16.37;;
79759;SDS011;70512;42.122;24.732;2024-02-26T11:19:09;32.78;;;16.05;;
79759;SDS011;70512;42.122;24.732;2024-02-26T11:21:37;26.45;;;15.68;;
79759;SDS011;70512;42.122;24.732;2024-02-26T11:24:11;26.07;;;13.95;;
79759;SDS011;70512;42.122;24.732;2024-02-26T11:26:44;21.12;;;13.60;;
79759;SDS011;70512;42.122;24.732;2024-02-26T11:29:14;24.60;;;14.25;;
79759;SDS011;70512;42.122;24.732;2024-02-26T11:31:44;21.20;;;14.85;;
79759;SDS011;70512;42.122;24.732;2024-02-26T11:34:13;23.20;;;14.25;;
79759;SDS011;70512;42.122;24.732;2024-02-26T11:36:41;26.30;;;14.10;;
79759;SDS011;70512;42.122;24.732;2024-02-26T11:39:08;29.27;;;15.83;;
79759;SDS011;70512;42.122;24.732;2024-02-26T11:41:38;20.97;;;14.33;;
79759;SDS011;70512;42.122;24.732;2024-02-26T11:44:07;29.05;;;14.28;;
79759;SDS011;70512;42.122;24.732;2024-02-26T11:46:39;27.32;;;14.80;;
79759;SDS011;70512;42.122;24.732;2024-02-26T11:51:54;24.98;;;14.93;;
79759;SDS011;70512;42.122;24.732;2024-02-26T11:54:38;22.95;;;14.73;;
79759;SDS011;70512;42.122;24.732;2024-02-26T12:00:11;25.00;;;16.42;;
79759;SDS011;70512;42.122;24.732;2024-02-26T12:02:46;27.35;;;17.32;;
79759;SDS011;70512;42.122;24.732;2024-02-26T12:05:19;25.62;;;17.92;;
79759;SDS011;70512;42.122;24.732;2024-02-26T12:07:52;31.65;;;20.10;;
79759;SDS011;70512;42.122;24.732;2024-02-26T12:10:26;48.55;;;34.23;;
79759;SDS011;70512;42.122;24.732;2024-02-26T12:12:58;24.52;;;17.73;;
79759;SDS011;70512;42.122;24.732;2024-02-26T12:15:33;27.25;;;16.87;;
79759;SDS011;70512;42.122;24.732;2024-02-26T12:18:05;27.27;;;16.97;;
79759;SDS011;70512;42.122;24.732;2024-02-26T12:20:36;25.02;;;16.60;;
79759;SDS011;70512;42.122;24.732;2024-02-26T12:23:04;25.17;;;16.50;;
79759;SDS011;70512;42.122;24.732;2024-02-26T12:25:32;27.62;;;17.17;;
79759;SDS011;70512;42.122;24.732;2024-02-26T12:28:00;26.75;;;17.57;;
79759;SDS011;70512;42.122;24.732;2024-02-26T12:30:29;31.57;;;17.42;;
79759;SDS011;70512;42.122;24.732;2024-02-26T12:32:58;24.67;;;16.80;;
79759;SDS011;70512;42.122;24.732;2024-02-26T12:35:26;29.63;;;16.77;;
79759;SDS011;70512;42.122;24.732;2024-02-26T12:37:57;35.83;;;17.00;;
79759;SDS011;70512;42.122;24.732;2024-02-26T12:40:26;26.12;;;16.32;;
79759;SDS011;70512;42.122;24.732;2024-02-26T12:42:54;36.73;;;17.27;;
79759;SDS011;70512;42.122;24.732;2024-02-26T12:45:22;26.70;;;16.50;;
79759;SDS011;70512;42.122;24.732;2024-02-26T12:47:52;25.77;;;16.77;;
79759;SDS011;70512;42.122;24.732;2024-02-26T12:50:20;31.23;;;16.48;;
79759;SDS011;70512;42.122;24.732;2024-02-26T12:52:47;26.42;;;16.07;;
79759;SDS011;70512;42.122;24.732;2024-02-26T12:55:17;33.30;;;17.52;;
79759;SDS011;70512;42.122;24.732;2024-02-26T12:57:46;42.67;;;21.00;;
79759;SDS011;70512;42.122;24.732;2024-02-26T13:00:16;26.87;;;16.82;;
79759;SDS011;70512;42.122;24.732;2024-02-26T13:02:47;29.75;;;17.55;;
79759;SDS011;70512;42.122;24.732;2024-02-26T13:05:17;29.20;;;16.15;;
79759;SDS011;70512;42.122;24.732;2024-02-26T13:07:46;26.62;;;16.60;;
79759;SDS011;70512;42.122;24.732;2024-02-26T13:10:14;27.90;;;17.00;;
79759;SDS011;70512;42.122;24.732;2024-02-26T13:12:44;29.23;;;16.32;;
79759;SDS011;70512;42.122;24.732;2024-02-26T13:15:16;33.85;;;17.45;;
79759;SDS011;70512;42.122;24.732;2024-02-26T13:17:45;28.40;;;16.77;;
79759;SDS011;70512;42.122;24.732;2024-02-26T13:20:24;28.25;;;17.65;;
79759;SDS011;70512;42.122;24.732;2024-02-26T13:23:01;43.50;;;20.50;;
79759;SDS011;70512;42.122;24.732;2024-02-26T13:25:33;25.15;;;16.95;;
79759;SDS011;70512;42.122;24.732;2024-02-26T13:28:08;38.00;;;15.63;;
79759;SDS011;70512;42.122;24.732;2024-02-26T13:30:37;27.50;;;16.55;;
79759;SDS011;70512;42.122;24.732;2024-02-26T13:33:09;33.63;;;16.95;;
79759;SDS011;70512;42.122;24.732;2024-02-26T13:35:37;30.88;;;17.00;;
79759;SDS011;70512;42.122;24.732;2024-02-26T13:38:05;28.90;;;15.53;;
79759;SDS011;70512;42.122;24.732;2024-02-26T13:40:35;30.65;;;17.73;;
79759;SDS011;70512;42.122;24.732;2024-02-26T13:43:03;37.93;;;16.42;;
79759;SDS011;70512;42.122;24.732;2024-02-26T13:45:33;26.95;;;15.40;;
79759;SDS011;70512;42.122;24.732;2024-02-26T13:48:04;30.85;;;15.35;;
79759;SDS011;70512;42.122;24.732;2024-02-26T13:50:33;22.17;;;14.85;;
79759;SDS011;70512;42.122;24.732;2024-02-26T13:53:01;32.80;;;16.17;;
79759;SDS011;70512;42.122;24.732;2024-02-26T13:55:30;34.20;;;14.65;;
79759;SDS011;70512;42.122;24.732;2024-02-26T13:57:59;27.15;;;20.10;;
79759;SDS011;70512;42.122;24.732;2024-02-26T14:00:27;23.70;;;14.50;;
79759;SDS011;70512;42.122;24.732;2024-02-26T14:02:58;21.12;;;14.43;;
79759;SDS011;70512;42.122;24.732;2024-02-26T14:05:26;29.63;;;16.48;;
79759;SDS011;70512;42.122;24.732;2024-02-26T14:07:55;25.12;;;14.13;;
79759;SDS011;70512;42.122;24.732;2024-02-26T14:10:22;30.72;;;15.15;;
79759;SDS011;70512;42.122;24.732;2024-02-26T14:12:50;22.52;;;13.28;;
79759;SDS011;70512;42.122;24.732;2024-02-26T14:15:20;24.82;;;14.45;;
79759;SDS011;70512;42.122;24.732;2024-02-26T14:17:47;27.25;;;14.07;;
79759;SDS011;70512;42.122;24.732;2024-02-26T14:20:16;24.82;;;12.45;;
79759;SDS011;70512;42.122;24.732;2024-02-26T14:22:44;28.98;;;13.15;;
79759;SDS011;70512;42.122;24.732;2024-02-26T14:25:12;27.82;;;12.88;;